createdAt,value
2024-01-05T00:01:00.494Z,2.50
2024-01-05T00:03:28.531Z,2.50
2024-01-05T00:05:58.015Z,2.50
2024-01-05T00:08:26.021Z,2.50
2024-01-05T00:10:54.120Z,2.50
2024-01-05T00:13:22.110Z,2.50
2024-01-05T00:15:50.032Z,2.50
2024-01-05T00:18:18.212Z,2.50
2024-01-05T00:20:46.343Z,2.40
2024-01-05T00:23:15.838Z,2.50
2024-01-05T00:25:43.785Z,2.50
2024-01-05T00:28:11.796Z,2.50
2024-01-05T00:30:39.924Z,2.50
2024-01-05T00:33:08.065Z,2.50
2024-01-05T00:35:36.095Z,2.40
2024-01-05T00:38:05.803Z,2.50
2024-01-05T00:40:35.112Z,2.50
2024-01-05T00:43:03.238Z,2.50
2024-01-05T00:45:31.821Z,2.50
2024-01-05T00:48:00.060Z,2.50
2024-01-05T00:50:28.170Z,2.50
2024-01-05T00:52:56.073Z,2.40
2024-01-05T00:55:25.435Z,2.40
2024-01-05T00:57:54.761Z,2.40
2024-01-05T01:00:22.817Z,2.40
2024-01-05T01:02:50.928Z,2.40
2024-01-05T01:05:19.184Z,2.50
2024-01-05T01:07:47.179Z,2.50
2024-01-05T01:10:15.072Z,2.40
2024-01-05T01:12:43.910Z,2.40
2024-01-05T01:15:13.355Z,2.50
2024-01-05T01:17:41.442Z,2.40
2024-01-05T01:20:10.632Z,2.40
2024-01-05T01:22:38.563Z,2.50
2024-01-05T01:25:07.394Z,2.40
2024-01-05T01:27:35.565Z,2.40
2024-01-05T01:30:04.249Z,2.30
2024-01-05T01:32:33.708Z,2.40
2024-01-05T01:35:01.718Z,2.30
2024-01-05T01:37:29.726Z,2.30
2024-01-05T01:39:57.696Z,2.30
2024-01-05T01:42:26.293Z,2.30
2024-01-05T01:44:54.365Z,2.30
2024-01-05T01:47:22.366Z,2.20
2024-01-05T01:49:51.917Z,2.10
2024-01-05T01:52:19.874Z,2.10
2024-01-05T01:54:47.878Z,2.10
2024-01-05T01:57:15.913Z,2.10
2024-01-05T01:59:43.893Z,2.10
2024-01-05T02:02:12.748Z,2.10
2024-01-05T02:04:40.936Z,2.10
2024-01-05T02:07:10.409Z,2.10
2024-01-05T02:09:38.462Z,2.00
2024-01-05T02:12:07.184Z,2.00
2024-01-05T02:14:35.158Z,2.10
2024-01-05T02:17:03.051Z,2.00
2024-01-05T02:19:31.136Z,2.10
2024-01-05T02:21:59.085Z,2.00
2024-01-05T02:24:28.377Z,2.00
2024-01-05T02:26:56.513Z,2.00
2024-01-05T02:29:24.450Z,2.00
2024-01-05T02:31:52.394Z,2.00
2024-01-05T02:34:20.559Z,2.00
2024-01-05T02:36:50.291Z,2.00
2024-01-05T02:39:18.311Z,1.90
2024-01-05T02:41:47.737Z,1.90
2024-01-05T02:44:15.757Z,2.00
2024-01-05T02:46:44.014Z,2.00
2024-01-05T02:49:12.352Z,2.00
2024-01-05T02:51:41.143Z,1.80
2024-01-05T02:54:09.231Z,1.90
2024-01-05T02:56:37.271Z,1.90
2024-01-05T02:59:06.751Z,2.00
2024-01-05T03:01:34.754Z,2.00
2024-01-05T03:04:03.253Z,1.90
2024-01-05T03:06:31.411Z,1.90
2024-01-05T03:08:59.524Z,1.90
2024-01-05T03:11:28.026Z,1.90
2024-01-05T03:13:56.014Z,1.80
2024-01-05T03:16:25.369Z,1.80
2024-01-05T03:18:53.571Z,1.70
2024-01-05T03:21:21.676Z,1.80
2024-01-05T03:23:49.664Z,1.80
2024-01-05T03:26:17.713Z,1.70
2024-01-05T03:28:45.635Z,1.80
2024-01-05T03:31:14.337Z,1.80
2024-01-05T03:33:45.122Z,1.80
2024-01-05T03:36:13.397Z,1.80
2024-01-05T03:38:42.826Z,1.80
2024-01-05T03:41:10.878Z,1.80
2024-01-05T03:43:38.843Z,1.80
2024-01-05T03:46:06.993Z,1.80
2024-01-05T03:48:35.089Z,1.80
2024-01-05T03:51:04.876Z,1.80
2024-01-05T03:53:32.868Z,1.80
2024-01-05T03:56:00.822Z,1.60
2024-01-05T03:58:29.505Z,1.60
2024-01-05T04:00:57.644Z,1.50
2024-01-05T04:03:26.029Z,1.50
2024-01-05T04:05:54.261Z,1.40
2024-01-05T04:08:23.654Z,1.50
2024-01-05T04:10:52.079Z,1.50
2024-01-05T04:13:20.534Z,1.60
2024-01-05T04:15:48.663Z,1.50
2024-01-05T04:18:16.846Z,1.50
2024-01-05T04:20:44.991Z,1.40
2024-01-05T04:23:13.160Z,1.40
2024-01-05T04:25:42.561Z,1.40
2024-01-05T04:28:10.540Z,1.40
2024-01-05T04:30:38.680Z,1.50
2024-01-05T04:33:06.983Z,1.50
2024-01-05T04:35:35.397Z,1.40
2024-01-05T04:38:03.350Z,1.30
2024-01-05T04:40:31.300Z,1.30
2024-01-05T04:43:00.581Z,1.30
2024-01-05T04:45:28.861Z,1.20
2024-01-05T04:47:56.978Z,1.20
2024-01-05T04:50:24.945Z,1.20
2024-01-05T04:52:52.965Z,1.20
2024-01-05T04:55:21.794Z,1.10
2024-01-05T04:57:49.888Z,1.10
2024-01-05T05:00:19.951Z,1.10
2024-01-05T05:02:48.051Z,1.10
2024-01-05T05:05:16.233Z,1.20
2024-01-05T05:07:44.242Z,1.20
2024-01-05T05:10:12.347Z,1.20
2024-01-05T05:12:40.360Z,1.20
2024-01-05T05:15:09.954Z,1.20
2024-01-05T05:17:39.303Z,1.20
2024-01-05T05:20:08.148Z,1.20
2024-01-05T05:22:36.186Z,1.20
2024-01-05T05:25:06.615Z,1.20
2024-01-05T05:27:35.741Z,1.30
2024-01-05T05:30:06.919Z,1.20
2024-01-05T05:32:35.024Z,1.30
2024-01-05T05:35:04.657Z,1.20
2024-01-05T05:37:32.707Z,1.20
2024-01-05T05:40:00.814Z,1.20
2024-01-05T05:42:28.893Z,1.20
2024-01-05T05:44:57.156Z,1.20
2024-01-05T05:47:25.223Z,1.30
2024-01-05T05:49:54.387Z,1.30
2024-01-05T05:52:26.000Z,1.40
2024-01-05T05:54:55.204Z,1.40
2024-01-05T05:57:23.410Z,1.30
2024-01-05T05:59:52.914Z,1.30
2024-01-05T06:02:21.340Z,1.30
2024-01-05T06:04:49.533Z,1.30
2024-01-05T06:07:18.081Z,1.30
2024-01-05T06:09:48.361Z,1.30
2024-01-05T06:12:16.444Z,1.30
2024-01-05T06:14:44.536Z,1.20
2024-01-05T06:17:12.546Z,1.10
2024-01-05T06:19:40.655Z,1.20
2024-01-05T06:22:09.229Z,1.10
2024-01-05T06:24:37.483Z,1.20
2024-01-05T06:27:07.155Z,1.20
2024-01-05T06:29:35.196Z,1.20
2024-01-05T06:32:03.477Z,1.20
2024-01-05T06:34:31.543Z,1.10
2024-01-05T06:37:00.378Z,1.10
2024-01-05T06:39:28.333Z,1.10
2024-01-05T06:41:56.345Z,1.20
2024-01-05T06:44:25.701Z,1.10
2024-01-05T06:46:54.202Z,1.10
2024-01-05T06:49:22.333Z,1.10
2024-01-05T06:51:50.412Z,1.20
2024-01-05T06:54:18.462Z,1.20
2024-01-05T06:56:46.485Z,1.20
2024-01-05T06:59:14.515Z,1.30
2024-01-05T07:01:43.973Z,1.30
2024-01-05T07:04:12.020Z,1.20
2024-01-05T07:06:42.812Z,1.20
2024-01-05T07:09:10.898Z,1.20
2024-01-05T07:11:39.100Z,1.30
2024-01-05T07:14:07.440Z,1.30
2024-01-05T07:16:35.466Z,1.20
2024-01-05T07:19:04.887Z,1.20
2024-01-05T07:21:34.662Z,1.30
2024-01-05T07:24:02.776Z,1.20
2024-01-05T07:26:30.725Z,1.20
2024-01-05T07:28:59.448Z,1.20
2024-01-05T07:31:27.475Z,1.20
2024-01-05T07:33:55.700Z,1.20
2024-01-05T07:36:25.350Z,1.20
2024-01-05T07:38:53.312Z,1.20
2024-01-05T07:41:21.340Z,1.30
2024-01-05T07:43:49.895Z,1.30
2024-01-05T07:46:17.846Z,1.20
2024-01-05T07:48:46.033Z,1.30
2024-01-05T07:51:14.879Z,1.20
2024-01-05T07:53:44.238Z,1.20
2024-01-05T07:56:12.165Z,1.30
2024-01-05T07:58:41.949Z,1.30
2024-01-05T08:01:09.898Z,1.30
2024-01-05T08:03:37.964Z,1.30
2024-01-05T08:06:06.820Z,1.30
2024-01-05T08:08:34.911Z,1.30
2024-01-05T08:11:04.268Z,1.30
2024-01-05T08:13:32.228Z,1.30
2024-01-05T08:16:00.234Z,1.40
2024-01-05T08:18:28.365Z,1.40
2024-01-05T08:20:56.482Z,1.40
2024-01-05T08:23:24.526Z,1.40
2024-01-05T08:25:52.482Z,1.40
2024-01-05T08:28:21.798Z,1.50
2024-01-05T08:30:49.770Z,1.60
2024-01-05T08:33:17.902Z,1.60
2024-01-05T08:35:46.260Z,1.70
2024-01-05T08:38:15.454Z,1.60
2024-01-05T08:40:43.539Z,1.70
2024-01-05T08:43:11.728Z,1.70
2024-01-05T08:45:41.175Z,1.70
2024-01-05T08:48:09.993Z,1.70
2024-01-05T08:50:38.422Z,1.70
2024-01-05T08:53:06.444Z,1.70
2024-01-05T08:55:34.741Z,1.70
2024-01-05T08:58:04.001Z,1.70
2024-01-05T09:00:31.989Z,1.70
2024-01-05T09:03:01.838Z,1.70
2024-01-05T09:05:30.180Z,1.70
2024-01-05T09:07:58.267Z,1.70
2024-01-05T09:10:27.326Z,1.70
2024-01-05T09:12:55.331Z,1.80
2024-01-05T09:15:24.250Z,1.80
2024-01-05T09:17:52.854Z,1.90
2024-01-05T09:20:22.329Z,1.80
2024-01-05T09:22:50.340Z,1.90
2024-01-05T09:25:18.284Z,1.90
2024-01-05T09:27:46.376Z,2.00
2024-01-05T09:30:14.854Z,2.00
2024-01-05T09:32:42.882Z,2.10
2024-01-05T09:35:12.369Z,2.00
2024-01-05T09:37:41.812Z,2.10
2024-01-05T09:40:11.996Z,2.00
2024-01-05T09:42:41.631Z,2.00
2024-01-05T09:45:12.836Z,2.00
2024-01-05T09:47:40.986Z,2.00
2024-01-05T09:50:09.906Z,2.10
2024-01-05T09:52:38.017Z,2.10
2024-01-05T09:55:08.025Z,2.10
2024-01-05T09:57:36.100Z,2.20
2024-01-05T10:00:04.979Z,2.20
2024-01-05T10:02:34.383Z,2.20
2024-01-05T10:05:02.538Z,2.30
2024-01-05T10:07:30.530Z,2.30
2024-01-05T10:09:59.948Z,2.30
2024-01-05T10:12:30.012Z,2.30
2024-01-05T10:15:05.162Z,2.40
2024-01-05T10:17:33.360Z,2.30
2024-01-05T10:20:12.648Z,2.40
2024-01-05T10:22:40.679Z,2.40
2024-01-05T10:25:18.844Z,2.40
2024-01-05T10:27:49.535Z,2.40
2024-01-05T10:30:30.406Z,2.40
2024-01-05T10:33:05.357Z,2.40
2024-01-05T10:35:33.431Z,2.50
2024-01-05T10:38:08.195Z,2.50
2024-01-05T10:40:36.277Z,2.50
2024-01-05T10:43:13.049Z,2.60
2024-01-05T10:45:42.685Z,2.60
2024-01-05T10:48:11.953Z,2.70
2024-01-05T10:50:42.454Z,2.70
2024-01-05T10:53:10.789Z,2.70
2024-01-05T10:55:39.845Z,2.80
2024-01-05T10:58:08.939Z,2.80
2024-01-05T11:00:38.522Z,2.90
2024-01-05T11:03:12.020Z,2.90
2024-01-05T11:05:42.500Z,2.90
2024-01-05T11:08:15.989Z,3.00
2024-01-05T11:10:47.981Z,3.00
2024-01-05T11:13:28.377Z,3.10
2024-01-05T11:16:08.916Z,3.20
2024-01-05T11:18:53.479Z,3.30
2024-01-05T11:21:25.962Z,3.40
2024-01-05T11:23:55.186Z,3.30
2024-01-05T11:26:33.226Z,3.40
2024-01-05T11:29:01.234Z,3.40
2024-01-05T11:31:55.172Z,3.50
2024-01-05T11:34:33.660Z,3.50
2024-01-05T11:37:01.832Z,3.60
2024-01-05T11:39:47.189Z,3.60
2024-01-05T11:42:32.946Z,3.60
2024-01-05T11:45:02.318Z,3.70
2024-01-05T11:47:47.174Z,3.70
2024-01-05T11:50:28.424Z,3.70
2024-01-05T11:53:12.528Z,3.70
2024-01-05T11:55:43.837Z,3.70
2024-01-05T11:58:13.110Z,3.70
2024-01-05T12:00:44.117Z,3.80
2024-01-05T12:03:13.575Z,3.80
2024-01-05T12:05:41.636Z,3.80
2024-01-05T12:08:12.002Z,3.80
2024-01-05T12:10:40.937Z,3.90
2024-01-05T12:13:09.169Z,4.00
2024-01-05T12:15:44.219Z,4.00
2024-01-05T12:18:27.962Z,4.10
2024-01-05T12:21:03.300Z,4.10
2024-01-05T12:23:31.894Z,4.10
2024-01-05T12:26:04.487Z,4.10
2024-01-05T12:28:33.158Z,4.10
2024-01-05T12:31:01.244Z,4.10
2024-01-05T12:33:31.590Z,4.10
2024-01-05T12:35:59.822Z,4.10
2024-01-05T12:38:29.775Z,4.10
2024-01-05T12:41:06.900Z,4.10
2024-01-05T12:43:36.115Z,4.10
2024-01-05T12:46:06.186Z,4.10
2024-01-05T12:48:36.118Z,4.10
2024-01-05T12:51:07.970Z,4.00
2024-01-05T12:53:36.347Z,4.00
2024-01-05T12:56:09.083Z,4.00
2024-01-05T12:58:41.120Z,4.00
2024-01-05T13:01:10.447Z,3.90
2024-01-05T13:03:39.793Z,4.00
2024-01-05T13:06:09.341Z,3.90
2024-01-05T13:08:37.336Z,3.90
2024-01-05T13:11:07.438Z,4.00
2024-01-05T13:13:35.477Z,3.90
2024-01-05T13:16:03.594Z,3.90
2024-01-05T13:18:31.827Z,3.90
2024-01-05T13:21:01.355Z,3.90
2024-01-05T13:23:30.500Z,3.80
2024-01-05T13:25:58.509Z,3.80
2024-01-05T13:28:26.871Z,3.80
2024-01-05T13:30:55.091Z,3.80
2024-01-05T13:33:23.228Z,3.70
2024-01-05T13:35:51.380Z,3.70
2024-01-05T13:38:23.293Z,3.70
2024-01-05T13:40:51.377Z,3.70
2024-01-05T13:43:19.367Z,3.70
2024-01-05T13:45:47.339Z,3.70
2024-01-05T13:48:15.409Z,3.70
2024-01-05T13:50:43.391Z,3.70
2024-01-05T13:53:14.185Z,3.70
2024-01-05T13:55:43.819Z,3.60
2024-01-05T13:58:11.805Z,3.60
2024-01-05T14:00:40.608Z,3.60
2024-01-05T14:03:09.318Z,3.60
2024-01-05T14:05:37.398Z,3.50
2024-01-05T14:08:06.035Z,3.50
2024-01-05T14:10:34.031Z,3.50
2024-01-05T14:13:03.556Z,3.50
2024-01-05T14:15:31.546Z,3.40
2024-01-05T14:17:59.699Z,3.40
2024-01-05T14:20:27.840Z,3.40
2024-01-05T14:22:55.877Z,3.30
2024-01-05T14:25:23.961Z,3.30
2024-01-05T14:27:52.061Z,3.30
2024-01-05T14:30:21.635Z,3.20
2024-01-05T14:32:49.767Z,3.20
2024-01-05T14:35:17.772Z,3.10
2024-01-05T14:37:45.802Z,3.10
2024-01-05T14:40:15.011Z,3.10
2024-01-05T14:42:43.139Z,3.00
2024-01-05T14:45:11.535Z,3.00
2024-01-05T14:47:42.688Z,3.00
2024-01-05T14:50:11.579Z,2.90
2024-01-05T14:52:39.532Z,2.90
2024-01-05T14:55:10.910Z,2.90
2024-01-05T14:57:38.944Z,2.90
2024-01-05T15:00:08.088Z,2.90
2024-01-05T15:02:36.219Z,2.80
2024-01-05T15:05:06.320Z,2.70
2024-01-05T15:07:34.235Z,2.70
2024-01-05T15:10:04.074Z,2.60
2024-01-05T15:12:32.245Z,2.70
2024-01-05T15:15:00.697Z,2.60
2024-01-05T15:17:28.837Z,2.60
2024-01-05T15:19:56.966Z,2.60
2024-01-05T15:22:26.344Z,2.50
2024-01-05T15:24:54.394Z,2.60
2024-01-05T15:27:22.556Z,2.60
2024-01-05T15:29:50.562Z,2.50
2024-01-05T15:32:18.540Z,2.50
2024-01-05T15:34:46.782Z,2.50
2024-01-05T15:37:17.305Z,2.50
2024-01-05T15:39:46.677Z,2.40
2024-01-05T15:42:14.842Z,2.40
2024-01-05T15:44:43.058Z,2.40
2024-01-05T15:47:11.204Z,2.40
2024-01-05T15:49:39.349Z,2.40
2024-01-05T15:52:07.563Z,2.40
2024-01-05T15:54:35.611Z,2.40
2024-01-05T15:57:05.585Z,2.30
2024-01-05T15:59:36.837Z,2.30
2024-01-05T16:02:05.278Z,2.30
2024-01-05T16:04:34.642Z,2.40
2024-01-05T16:07:02.687Z,2.40
2024-01-05T16:09:30.862Z,2.30
2024-01-05T16:11:59.330Z,2.30
2024-01-05T16:14:28.702Z,2.30
2024-01-05T16:16:58.335Z,2.20
2024-01-05T16:19:26.507Z,2.30
2024-01-05T16:21:54.967Z,2.20
2024-01-05T16:24:23.058Z,2.20
2024-01-05T16:26:52.035Z,2.30
2024-01-05T16:29:20.001Z,2.20
2024-01-05T16:31:49.416Z,2.20
2024-01-05T16:34:17.592Z,2.20
2024-01-05T16:36:45.661Z,2.20
2024-01-05T16:39:13.857Z,2.20
2024-01-05T16:41:41.831Z,2.20
2024-01-05T16:44:09.894Z,2.20
2024-01-05T16:46:37.900Z,2.10
2024-01-05T16:49:08.010Z,2.20
2024-01-05T16:51:36.444Z,2.20
2024-01-05T16:54:05.856Z,2.10
2024-01-05T16:56:41.030Z,2.10
2024-01-05T16:59:11.764Z,2.10
2024-01-05T17:01:39.809Z,2.10
2024-01-05T17:04:10.668Z,2.10
2024-01-05T17:06:39.150Z,2.10
2024-01-05T17:09:07.418Z,2.10
2024-01-05T17:11:35.488Z,2.00
2024-01-05T17:14:03.814Z,2.00
2024-01-05T17:16:31.855Z,2.00
2024-01-05T17:19:01.668Z,1.90
2024-01-05T17:21:31.172Z,1.90
2024-01-05T17:23:59.209Z,2.00
2024-01-05T17:26:27.364Z,1.90
2024-01-05T17:28:55.358Z,2.00
2024-01-05T17:31:23.439Z,2.00
2024-01-05T17:33:51.752Z,1.90
2024-01-05T17:36:20.484Z,1.90
2024-01-05T17:38:50.801Z,1.90
2024-01-05T17:41:18.794Z,1.90
2024-01-05T17:43:46.765Z,2.00
2024-01-05T17:46:14.951Z,2.00
2024-01-05T17:48:43.218Z,2.00
2024-01-05T17:51:11.313Z,1.90
2024-01-05T17:53:39.652Z,2.00
2024-01-05T17:56:09.378Z,2.00
2024-01-05T17:58:37.407Z,1.90
2024-01-05T18:01:09.411Z,1.90
2024-01-05T18:03:39.868Z,1.90
2024-01-05T18:06:10.645Z,1.90
2024-01-05T18:08:38.795Z,2.00
2024-01-05T18:11:09.493Z,2.00
2024-01-05T18:13:37.637Z,1.90
2024-01-05T18:16:07.696Z,2.00
2024-01-05T18:18:39.718Z,1.90
2024-01-05T18:21:08.099Z,2.00
2024-01-05T18:23:36.070Z,2.00
2024-01-05T18:26:04.618Z,1.90
2024-01-05T18:28:33.955Z,2.00
2024-01-05T18:31:02.218Z,2.00
2024-01-05T18:33:30.422Z,1.90
2024-01-05T18:35:58.482Z,1.90
2024-01-05T18:38:26.456Z,1.90
2024-01-05T18:40:54.461Z,1.90
2024-01-05T18:43:22.987Z,1.90
2024-01-05T18:45:53.111Z,1.90
2024-01-05T18:48:21.322Z,1.90
2024-01-05T18:50:49.782Z,1.90
2024-01-05T18:53:17.950Z,1.90
2024-01-05T18:55:45.978Z,1.90
2024-01-05T18:58:14.006Z,1.90
2024-01-05T19:00:43.550Z,1.90
2024-01-05T19:03:13.313Z,1.90
2024-01-05T19:05:41.461Z,1.90
2024-01-05T19:08:13.646Z,1.90
2024-01-05T19:10:42.936Z,1.90
2024-01-05T19:13:11.098Z,1.90
2024-01-05T19:15:39.238Z,1.90
2024-01-05T19:18:07.669Z,1.90
2024-01-05T19:20:37.136Z,1.90
2024-01-05T19:23:05.552Z,1.80
2024-01-05T19:25:33.549Z,1.80
2024-01-05T19:28:01.579Z,1.80
2024-01-05T19:30:29.608Z,1.80
2024-01-05T19:32:57.652Z,1.80
2024-01-05T19:35:25.628Z,1.80
2024-01-05T19:37:56.811Z,1.80
2024-01-05T19:40:25.110Z,1.80
2024-01-05T19:42:53.247Z,1.80
2024-01-05T19:45:21.260Z,1.80
2024-01-05T19:47:49.643Z,1.80
2024-01-05T19:50:17.866Z,1.80
2024-01-05T19:52:45.934Z,1.80
2024-01-05T19:55:15.320Z,1.90
2024-01-05T19:57:43.356Z,1.90
2024-01-05T20:00:14.339Z,1.80
2024-01-05T20:02:42.531Z,1.80
2024-01-05T20:05:10.998Z,1.80
2024-01-05T20:07:39.259Z,1.80
2024-01-05T20:10:09.133Z,1.80
2024-01-05T20:12:44.410Z,1.80
2024-01-05T20:15:12.584Z,1.80
2024-01-05T20:17:40.659Z,1.80
2024-01-05T20:20:10.297Z,1.80
2024-01-05T20:22:40.465Z,1.80
2024-01-05T20:25:09.739Z,1.90
2024-01-05T20:27:39.755Z,1.80
2024-01-05T20:30:10.129Z,1.80
2024-01-05T20:32:40.903Z,1.80
2024-01-05T20:35:11.076Z,1.80
2024-01-05T20:37:39.466Z,1.80
2024-01-05T20:40:09.792Z,1.80
2024-01-05T20:42:39.745Z,1.80
2024-01-05T20:45:12.784Z,1.80
2024-01-05T20:47:42.194Z,1.80
2024-01-05T20:50:11.598Z,1.80
2024-01-05T20:52:40.166Z,1.70
2024-01-05T20:55:09.414Z,1.70
2024-01-05T20:57:39.165Z,1.70
2024-01-05T21:00:10.120Z,1.70
2024-01-05T21:02:38.211Z,1.70
2024-01-05T21:05:07.563Z,1.70
2024-01-05T21:07:36.946Z,1.70
2024-01-05T21:10:05.323Z,1.70
2024-01-05T21:12:33.652Z,1.70
2024-01-05T21:15:03.550Z,1.70
2024-01-05T21:17:31.553Z,1.70
2024-01-05T21:19:59.905Z,1.70
2024-01-05T21:22:27.950Z,1.70
2024-01-05T21:24:56.191Z,1.70
2024-01-05T21:27:24.789Z,1.80
2024-01-05T21:29:53.843Z,1.70
2024-01-05T21:32:25.418Z,1.70
2024-01-05T21:34:56.261Z,1.60
2024-01-05T21:37:24.800Z,1.70
2024-01-05T21:39:53.470Z,1.70
2024-01-05T21:42:21.867Z,1.70
2024-01-05T21:44:51.413Z,1.60
2024-01-05T21:47:20.893Z,1.60
2024-01-05T21:49:50.340Z,1.60
2024-01-05T21:52:18.409Z,1.50
2024-01-05T21:54:47.020Z,1.50
2024-01-05T21:57:15.140Z,1.50
2024-01-05T21:59:44.584Z,1.50
2024-01-05T22:02:12.631Z,1.50
2024-01-05T22:04:40.707Z,1.50
2024-01-05T22:07:10.757Z,1.50
2024-01-05T22:09:39.237Z,1.50
2024-01-05T22:12:08.792Z,1.40
2024-01-05T22:14:36.878Z,1.40
2024-01-05T22:17:04.178Z,1.40
2024-01-05T22:19:32.299Z,1.40
2024-01-05T22:22:00.891Z,1.40
2024-01-05T22:24:30.676Z,1.40
2024-01-05T22:26:58.842Z,1.40
2024-01-05T22:29:26.847Z,1.40
2024-01-05T22:31:55.048Z,1.40
2024-01-05T22:34:23.179Z,1.40
2024-01-05T22:36:51.437Z,1.40
2024-01-05T22:39:19.544Z,1.40
2024-01-05T22:41:49.179Z,1.30
2024-01-05T22:44:17.148Z,1.30
2024-01-05T22:46:44.224Z,1.30
2024-01-05T22:49:12.337Z,1.30
2024-01-05T22:51:40.480Z,1.30
2024-01-05T22:54:08.579Z,1.30
2024-01-05T22:56:36.554Z,1.30
2024-01-05T22:59:05.936Z,1.20
2024-01-05T23:01:34.068Z,1.20
2024-01-05T23:04:01.769Z,1.20
2024-01-05T23:06:29.970Z,1.20
2024-01-05T23:08:58.323Z,1.20
2024-01-05T23:11:26.275Z,1.20
2024-01-05T23:13:55.255Z,1.30
2024-01-05T23:16:24.652Z,1.30
2024-01-05T23:18:53.362Z,1.20
2024-01-05T23:21:21.540Z,1.20
2024-01-05T23:23:49.541Z,1.20
2024-01-05T23:26:18.205Z,1.20
2024-01-05T23:28:46.223Z,1.20
2024-01-05T23:31:14.494Z,1.10
2024-01-05T23:33:57.568Z,1.20
2024-01-05T23:36:32.648Z,1.10
2024-01-05T23:39:00.661Z,1.20
2024-01-05T23:41:28.644Z,1.10
2024-01-05T23:43:56.757Z,1.00
2024-01-05T23:46:24.666Z,1.00
2024-01-05T23:48:54.102Z,1.00
2024-01-05T23:51:22.179Z,1.00
2024-01-05T23:53:50.149Z,1.00
2024-01-05T23:56:18.260Z,1.00
2024-01-05T23:58:46.869Z,1.00
